createdAt,value
2022-08-02T00:00:01.422Z,98330.53
2022-08-02T00:00:15.277Z,98332.41
2022-08-02T00:00:28.539Z,98327.84
2022-08-02T00:00:41.394Z,98331.53
2022-08-02T00:00:55.752Z,98323.44
2022-08-02T00:01:08.839Z,98328.53
2022-08-02T00:01:22.072Z,98326.53
2022-08-02T00:01:36.167Z,98330.78
2022-08-02T00:01:49.197Z,98329.94
2022-08-02T00:02:04.213Z,98330.94
2022-08-02T00:02:17.877Z,98328.22
2022-08-02T00:02:30.821Z,98322.97
2022-08-02T00:02:44.517Z,98330.22
2022-08-02T00:02:57.397Z,98329.53
2022-08-02T00:03:10.419Z,98325.28
2022-08-02T00:03:24.421Z,98321.75
2022-08-02T00:03:37.588Z,98328.69
2022-08-02T00:03:51.523Z,98324.97
2022-08-02T00:04:05.810Z,98327.69
2022-08-02T00:04:18.707Z,98330.94
2022-08-02T00:04:32.310Z,98328.06
2022-08-02T00:04:45.694Z,98323.56
2022-08-02T00:04:58.658Z,98324.81
2022-08-02T00:05:11.677Z,98331.78
2022-08-02T00:05:24.597Z,98327.22
2022-08-02T00:05:37.591Z,98326.53
2022-08-02T00:05:54.036Z,98323.81
2022-08-02T00:06:07.154Z,98326.38
2022-08-02T00:06:20.061Z,98319.41
2022-08-02T00:06:33.171Z,98326.38
2022-08-02T00:06:46.219Z,98326.53
2022-08-02T00:06:59.104Z,98327.22
2022-08-02T00:07:12.147Z,98331.94
2022-08-02T00:07:25.093Z,98324.81
2022-08-02T00:07:41.228Z,98330.22
2022-08-02T00:07:54.473Z,98328.22
2022-08-02T00:08:07.476Z,98329.94
2022-08-02T00:08:20.404Z,98328.22
2022-08-02T00:08:33.463Z,98320.84
2022-08-02T00:08:46.342Z,98321.81
2022-08-02T00:08:59.226Z,98324.97
2022-08-02T00:09:12.066Z,98329.34
2022-08-02T00:09:24.915Z,98324.25
2022-08-02T00:09:38.007Z,98328.94
2022-08-02T00:09:50.914Z,98328.38
2022-08-02T00:10:04.763Z,98323.81
2022-08-02T00:10:22.349Z,98325.69
2022-08-02T00:10:35.234Z,98324.28
2022-08-02T00:10:48.239Z,98322.59
2022-08-02T00:11:01.249Z,98321.44
2022-08-02T00:11:14.244Z,98319.34
2022-08-02T00:11:27.086Z,98323.03
2022-08-02T00:11:40.023Z,98324.03
2022-08-02T00:11:56.544Z,98327.84
2022-08-02T00:12:27.811Z,98324.28
2022-08-02T00:12:40.701Z,98322.53
2022-08-02T00:12:53.916Z,98322.38
2022-08-02T00:13:08.174Z,98318.84
2022-08-02T00:13:21.126Z,98322.38
2022-08-02T00:13:34.033Z,98325.63
2022-08-02T00:13:46.912Z,98321.78
2022-08-02T00:13:59.916Z,98321.28
2022-08-02T00:14:12.813Z,98314.19
2022-08-02T00:14:25.722Z,98317.41
2022-08-02T00:14:38.645Z,98320.84
2022-08-02T00:14:51.662Z,98323.41
2022-08-02T00:15:06.124Z,98323.25
2022-08-02T00:15:18.996Z,98323.81
2022-08-02T00:15:31.897Z,98319.00
2022-08-02T00:15:44.893Z,98318.00
2022-08-02T00:15:57.779Z,98313.59
2022-08-02T00:16:10.704Z,98320.12
2022-08-02T00:16:37.577Z,98323.75
2022-08-02T00:16:51.475Z,98316.69
2022-08-02T00:17:05.458Z,98323.31
2022-08-02T00:17:18.334Z,98321.63
2022-08-02T00:17:31.251Z,98318.22
2022-08-02T00:17:44.846Z,98319.09
2022-08-02T00:17:59.289Z,98326.34
2022-08-02T00:18:12.172Z,98315.22
2022-08-02T00:18:25.077Z,98324.03
2022-08-02T00:18:38.288Z,98320.31
2022-08-02T00:18:51.177Z,98321.16
2022-08-02T00:19:04.079Z,98321.47
2022-08-02T00:19:17.140Z,98327.88
2022-08-02T00:19:30.018Z,98318.63
2022-08-02T00:19:42.974Z,98323.03
2022-08-02T00:19:55.875Z,98326.28
2022-08-02T00:20:09.254Z,98327.16
2022-08-02T00:20:22.174Z,98322.59
2022-08-02T00:20:35.071Z,98321.75
2022-08-02T00:20:47.937Z,98322.75
2022-08-02T00:21:00.808Z,98327.16
2022-08-02T00:21:13.704Z,98318.03
2022-08-02T00:21:27.468Z,98321.75
2022-08-02T00:21:40.361Z,98325.88
2022-08-02T00:21:53.282Z,98319.47
2022-08-02T00:22:06.257Z,98322.91
2022-08-02T00:22:19.158Z,98319.03
2022-08-02T00:22:32.206Z,98319.03
2022-08-02T00:22:45.103Z,98317.19
2022-08-02T00:22:57.993Z,98320.75
2022-08-02T00:23:10.880Z,98316.34
2022-08-02T00:23:23.766Z,98326.69
2022-08-02T00:24:03.265Z,98318.53
2022-08-02T00:24:29.820Z,98320.53
2022-08-02T00:24:42.310Z,98321.25
2022-08-02T00:24:55.192Z,98322.63
2022-08-02T00:25:08.320Z,98312.81
2022-08-02T00:25:21.720Z,98321.09
2022-08-02T00:25:34.611Z,98321.31
2022-08-02T00:25:54.480Z,98314.06
2022-08-02T00:26:08.474Z,98313.22
2022-08-02T00:26:21.332Z,98312.62
2022-08-02T00:26:34.579Z,98315.03
2022-08-02T00:26:47.650Z,98318.88
2022-08-02T00:27:00.522Z,98317.03
2022-08-02T00:27:13.388Z,98319.72
2022-08-02T00:27:26.619Z,98308.53
2022-08-02T00:27:39.490Z,98320.88
2022-08-02T00:27:52.557Z,98315.19
2022-08-02T00:28:05.598Z,98322.59
2022-08-02T00:28:21.869Z,98316.34
2022-08-02T00:28:40.922Z,98311.94
2022-08-02T00:28:53.822Z,98314.78
2022-08-02T00:29:06.883Z,98316.66
2022-08-02T00:29:19.948Z,98317.63
2022-08-02T00:29:33.393Z,98315.06
2022-08-02T00:29:53.079Z,98315.75
2022-08-02T00:30:06.956Z,98311.25
2022-08-02T00:30:19.891Z,98318.34
2022-08-02T00:30:32.788Z,98319.34
2022-08-02T00:30:45.725Z,98322.03
2022-08-02T00:30:58.873Z,98317.78
2022-08-02T00:31:11.826Z,98321.03
2022-08-02T00:31:25.757Z,98322.16
2022-08-02T00:31:39.140Z,98316.75
2022-08-02T00:31:51.986Z,98314.78
2022-08-02T00:32:05.252Z,98319.03
2022-08-02T00:32:18.321Z,98320.03
2022-08-02T00:32:31.224Z,98321.91
2022-08-02T00:32:44.105Z,98321.75
2022-08-02T00:32:56.964Z,98319.19
2022-08-02T00:33:10.094Z,98314.91
2022-08-02T00:34:05.636Z,98313.47
2022-08-02T00:34:28.046Z,98321.44
2022-08-02T00:34:31.991Z,98323.47
2022-08-02T00:34:48.009Z,98310.94
2022-08-02T00:35:00.980Z,98315.91
2022-08-02T00:35:13.868Z,98317.78
2022-08-02T00:35:26.798Z,98312.81
2022-08-02T00:35:40.724Z,98311.13
2022-08-02T00:35:53.757Z,98314.69
2022-08-02T00:36:07.845Z,98312.81
2022-08-02T00:36:20.780Z,98314.22
2022-08-02T00:36:33.699Z,98313.94
2022-08-02T00:36:47.077Z,98318.19
2022-08-02T00:37:00.122Z,98314.31
2022-08-02T00:37:13.156Z,98313.47
2022-08-02T00:37:26.209Z,98315.34
2022-08-02T00:37:40.757Z,98324.28
2022-08-02T00:37:53.609Z,98314.47
2022-08-02T00:38:06.544Z,98317.03
2022-08-02T00:38:19.416Z,98315.19
2022-08-02T00:38:32.372Z,98321.28
2022-08-02T00:38:46.408Z,98318.72
2022-08-02T00:38:59.362Z,98320.75
2022-08-02T00:39:33.800Z,98319.03
2022-08-02T00:39:45.115Z,98315.63
2022-08-02T00:39:58.714Z,98320.31
2022-08-02T00:40:11.889Z,98318.63
2022-08-02T00:40:24.730Z,98318.63
2022-08-02T00:40:37.642Z,98315.38
2022-08-02T00:40:54.243Z,98318.22
2022-08-02T00:41:14.662Z,98322.63
2022-08-02T00:41:27.952Z,98318.78
2022-08-02T00:41:48.423Z,98322.16
2022-08-02T00:42:01.352Z,98320.31
2022-08-02T00:42:15.225Z,98326.56
2022-08-02T00:42:28.557Z,98321.16
2022-08-02T00:42:41.731Z,98322.47
2022-08-02T00:43:05.168Z,98319.63
2022-08-02T00:43:18.057Z,98322.16
2022-08-02T00:43:31.242Z,98319.47
2022-08-02T00:43:44.915Z,98320.19
2022-08-02T00:43:57.784Z,98316.91
2022-08-02T00:44:10.841Z,98320.94
2022-08-02T00:44:25.672Z,98319.22
2022-08-02T00:44:38.881Z,98320.09
2022-08-02T00:44:51.829Z,98321.63
2022-08-02T00:45:04.994Z,98316.06
2022-08-02T00:45:18.232Z,98313.22
2022-08-02T00:46:03.521Z,98321.16
2022-08-02T00:46:04.392Z,98321.16
2022-08-02T00:46:18.850Z,98317.91
2022-08-02T00:46:31.722Z,98314.84
2022-08-02T00:46:44.676Z,98322.63
2022-08-02T00:46:57.523Z,98319.94
2022-08-02T00:47:10.849Z,98317.91
2022-08-02T00:47:32.088Z,98323.31
2022-08-02T00:47:44.951Z,98322.31
2022-08-02T00:47:58.383Z,98321.16
2022-08-02T00:48:12.257Z,98322.16
2022-08-02T00:48:25.264Z,98325.88
2022-08-02T00:48:41.334Z,98319.63
2022-08-02T00:48:56.203Z,98320.62
2022-08-02T00:49:11.430Z,98323.31
2022-08-02T00:49:27.595Z,98319.63
2022-08-02T00:49:40.543Z,98322.16
2022-08-02T00:49:53.454Z,98316.91
2022-08-02T00:50:06.558Z,98323.16
2022-08-02T00:50:19.581Z,98320.47
2022-08-02T00:50:33.284Z,98323.16
2022-08-02T00:50:46.256Z,98316.91
2022-08-02T00:50:59.134Z,98317.06
2022-08-02T00:51:12.369Z,98316.06
2022-08-02T00:51:25.228Z,98322.31
2022-08-02T00:51:38.531Z,98327.72
2022-08-02T00:51:51.534Z,98319.47
2022-08-02T00:52:10.896Z,98316.91
2022-08-02T00:52:24.630Z,98318.94
2022-08-02T00:52:37.659Z,98321.63
2022-08-02T00:52:50.613Z,98319.22
2022-08-02T00:53:03.839Z,98321.94
2022-08-02T00:53:16.836Z,98323.09
2022-08-02T00:53:29.726Z,98320.09
2022-08-02T00:53:43.043Z,98324.47
2022-08-02T00:53:55.901Z,98324.31
2022-08-02T00:54:08.942Z,98321.78
2022-08-02T00:54:23.646Z,98320.94
2022-08-02T00:54:36.529Z,98325.63
2022-08-02T00:54:54.197Z,98322.47
2022-08-02T00:55:07.465Z,98320.38
2022-08-02T00:55:23.548Z,98324.78
2022-08-02T00:55:43.965Z,98321.25
2022-08-02T00:55:57.108Z,98324.63
2022-08-02T00:56:10.505Z,98320.94
2022-08-02T00:56:23.820Z,98317.53
2022-08-02T00:56:36.679Z,98324.63
2022-08-02T00:56:51.240Z,98326.34
2022-08-02T00:57:04.226Z,98314.69
2022-08-02T00:57:17.122Z,98323.63
2022-08-02T00:57:30.006Z,98320.09
2022-08-02T00:57:43.064Z,98325.50
2022-08-02T00:57:55.986Z,98328.34
2022-08-02T00:58:09.294Z,98323.78
2022-08-02T00:58:22.476Z,98324.63
2022-08-02T00:58:35.331Z,98325.50
2022-08-02T00:58:48.308Z,98324.78
2022-08-02T00:59:05.254Z,98326.78
2022-08-02T00:59:18.445Z,98326.66
2022-08-02T00:59:31.499Z,98328.34
2022-08-02T00:59:46.664Z,98327.34
2022-08-02T00:59:59.715Z,98331.75
2022-08-02T01:00:12.937Z,98334.28
2022-08-02T01:00:30.023Z,98336.12
2022-08-02T01:00:43.032Z,98329.88
2022-08-02T01:00:57.648Z,98329.88
2022-08-02T01:01:10.594Z,98329.03
2022-08-02T01:01:38.585Z,98331.75
2022-08-02T01:02:10.355Z,98330.88
2022-08-02T01:02:23.647Z,98332.19
2022-08-02T01:02:36.542Z,98332.28
2022-08-02T01:02:49.510Z,98334.06
2022-08-02T01:03:02.407Z,98335.75
2022-08-02T01:03:15.705Z,98329.34
2022-08-02T01:03:28.627Z,98335.44
2022-08-02T01:03:41.567Z,98335.44
2022-08-02T01:03:54.589Z,98337.13
2022-08-02T01:04:08.517Z,98329.88
2022-08-02T01:04:30.688Z,98333.44
2022-08-02T01:04:45.266Z,98333.44
2022-08-02T01:04:58.131Z,98328.03
2022-08-02T01:05:11.102Z,98339.00
2022-08-02T01:05:24.038Z,98335.44
2022-08-02T01:05:55.804Z,98338.16
2022-08-02T01:06:11.446Z,98339.84
2022-08-02T01:06:24.687Z,98334.06
2022-08-02T01:06:40.306Z,98332.44
2022-08-02T01:06:53.302Z,98339.84
2022-08-02T01:07:12.655Z,98331.91
2022-08-02T01:07:27.058Z,98338.00
2022-08-02T01:07:44.494Z,98333.28
2022-08-02T01:07:57.984Z,98339.47
2022-08-02T01:08:11.085Z,98327.75
2022-08-02T01:08:29.323Z,98337.44
2022-08-02T01:08:44.772Z,98334.75
2022-08-02T01:08:57.647Z,98340.84
2022-08-02T01:09:10.608Z,98337.13
2022-08-02T01:09:24.062Z,98337.00
2022-08-02T01:09:36.968Z,98330.19
2022-08-02T01:09:50.294Z,98333.75
2022-08-02T01:10:03.599Z,98333.75
2022-08-02T01:10:16.503Z,98331.19
2022-08-02T01:10:29.763Z,98338.56
2022-08-02T01:10:42.623Z,98329.59
2022-08-02T01:10:55.728Z,98329.72
2022-08-02T01:11:09.307Z,98330.03
2022-08-02T01:11:22.184Z,98338.31
2022-08-02T01:11:35.451Z,98334.75
2022-08-02T01:11:48.333Z,98336.28
2022-08-02T01:12:02.611Z,98326.19
2022-08-02T01:12:16.163Z,98330.47
2022-08-02T01:12:29.257Z,98332.28
2022-08-02T01:12:42.184Z,98331.59
2022-08-02T01:12:55.123Z,98330.59
2022-08-02T01:13:08.126Z,98337.00
2022-08-02T01:13:21.032Z,98337.00
2022-08-02T01:13:33.921Z,98330.59
2022-08-02T01:13:46.813Z,98326.88
2022-08-02T01:14:08.525Z,98334.13
2022-08-02T01:14:21.478Z,98330.59
2022-08-02T01:14:34.400Z,98335.28
2022-08-02T01:14:48.704Z,98333.75
2022-08-02T01:15:09.203Z,98335.44
2022-08-02T01:15:22.373Z,98331.91
2022-08-02T01:15:53.126Z,98336.12
2022-08-02T01:16:12.158Z,98338.84
2022-08-02T01:16:26.597Z,98339.00
2022-08-02T01:16:48.405Z,98337.16
2022-08-02T01:17:19.757Z,98338.00
2022-08-02T01:18:00.467Z,98335.28
2022-08-02T01:18:24.524Z,98337.00
2022-08-02T01:18:40.631Z,98335.44
2022-08-02T01:18:58.062Z,98330.34
2022-08-02T01:19:23.037Z,98333.06
2022-08-02T01:19:45.805Z,98329.50
2022-08-02T01:20:36.449Z,98330.19
2022-08-02T01:21:11.857Z,98328.03
2022-08-02T01:21:47.991Z,98331.03
2022-08-02T01:22:58.588Z,98333.75
2022-08-02T01:23:38.889Z,98331.50
2022-08-02T01:24:03.532Z,98328.06
2022-08-02T01:24:24.005Z,98324.53
2022-08-02T01:25:01.550Z,98327.53
2022-08-02T01:25:38.096Z,98327.69
2022-08-02T01:26:00.137Z,98324.66
2022-08-02T01:26:27.943Z,98321.81
2022-08-02T01:27:14.516Z,98329.06
2022-08-02T01:27:32.515Z,98322.97
2022-08-02T01:28:03.296Z,98321.44
2022-08-02T01:28:40.674Z,98322.28
2022-08-02T01:29:04.140Z,98320.41
2022-08-02T01:29:18.519Z,98331.06
2022-08-02T01:29:42.018Z,98318.56
2022-08-02T01:29:57.232Z,98323.97
2022-08-02T01:30:10.158Z,98328.69
2022-08-02T01:30:23.279Z,98324.28
2022-08-02T01:30:36.132Z,98330.69
2022-08-02T01:30:49.671Z,98328.12
2022-08-02T01:31:31.417Z,98331.69
2022-08-02T01:31:51.205Z,98332.53
2022-08-02T01:32:13.687Z,98336.09
2022-08-02T01:32:32.152Z,98333.53
2022-08-02T01:32:50.665Z,98330.97
2022-08-02T01:33:03.858Z,98332.09
2022-08-02T01:33:18.133Z,98332.81
2022-08-02T01:33:35.900Z,98329.97
2022-08-02T01:34:11.495Z,98337.94
2022-08-02T01:34:48.943Z,98336.62
2022-08-02T01:35:54.093Z,98336.62
2022-08-02T01:36:07.610Z,98329.22
2022-08-02T01:36:20.839Z,98330.22
2022-08-02T01:36:39.247Z,98331.06
2022-08-02T01:37:04.209Z,98329.81
2022-08-02T01:37:23.025Z,98335.78
2022-08-02T01:37:38.667Z,98333.06
2022-08-02T01:38:02.419Z,98332.37
2022-08-02T01:38:20.454Z,98323.44
2022-08-02T01:38:35.770Z,98335.22
2022-08-02T01:38:50.375Z,98331.53
2022-08-02T01:39:05.337Z,98329.84
2022-08-02T01:39:27.417Z,98327.28
2022-08-02T01:39:46.340Z,98333.53
2022-08-02T01:40:03.196Z,98327.81
2022-08-02T01:40:23.550Z,98330.53
2022-08-02T01:40:37.581Z,98333.38
2022-08-02T01:40:52.401Z,98333.69
2022-08-02T01:41:05.493Z,98335.50
2022-08-02T01:41:21.749Z,98334.66
2022-08-02T01:41:34.763Z,98336.50
2022-08-02T01:41:47.724Z,98334.81
2022-08-02T01:42:06.597Z,98329.25
2022-08-02T01:42:19.731Z,98333.09
2022-08-02T01:42:33.083Z,98341.06
2022-08-02T01:42:49.049Z,98332.94
2022-08-02T01:43:02.168Z,98329.25
2022-08-02T01:43:17.786Z,98335.50
2022-08-02T01:43:30.856Z,98337.22
2022-08-02T01:43:43.766Z,98335.38
2022-08-02T01:44:00.281Z,98333.81
2022-08-02T01:44:13.530Z,98335.50
2022-08-02T01:44:27.782Z,98333.81
2022-08-02T01:44:48.674Z,98333.94
2022-08-02T01:45:01.835Z,98334.66
2022-08-02T01:45:15.180Z,98339.94
2022-08-02T01:45:30.785Z,98338.09
2022-08-02T01:45:44.221Z,98336.50
2022-08-02T01:45:57.140Z,98332.09
2022-08-02T01:46:11.283Z,98329.97
2022-08-02T01:46:24.824Z,98334.53
2022-08-02T01:46:37.993Z,98336.38
2022-08-02T01:46:51.047Z,98337.22
2022-08-02T01:47:11.143Z,98339.09
2022-08-02T01:47:29.190Z,98330.09
2022-08-02T01:47:42.872Z,98337.34
2022-08-02T01:47:55.996Z,98335.66
2022-08-02T01:48:09.058Z,98342.06
2022-08-02T01:48:21.950Z,98342.06
2022-08-02T01:48:35.050Z,98339.34
2022-08-02T01:48:48.309Z,98334.97
2022-08-02T01:49:04.471Z,98336.50
2022-08-02T01:49:22.071Z,98348.16
2022-08-02T01:49:35.068Z,98340.06
2022-08-02T01:49:53.564Z,98341.78
2022-08-02T01:50:07.249Z,98342.91
2022-08-02T01:50:23.987Z,98344.59
2022-08-02T01:50:37.106Z,98347.31
2022-08-02T01:50:49.994Z,98349.88
2022-08-02T01:51:03.321Z,98343.50
2022-08-02T01:51:17.770Z,98348.03
2022-08-02T01:51:49.480Z,98354.41
2022-08-02T01:52:21.871Z,98350.84
2022-08-02T01:52:37.980Z,98342.06
2022-08-02T01:52:54.958Z,98359.09
2022-08-02T01:53:09.103Z,98347.75
2022-08-02T01:53:22.202Z,98349.59
2022-08-02T01:53:35.046Z,98348.91
2022-08-02T01:53:49.981Z,98354.16
2022-08-02T01:54:02.987Z,98347.91
2022-08-02T01:54:17.640Z,98347.75
2022-08-02T01:54:31.369Z,98346.59
2022-08-02T01:54:44.263Z,98348.31
2022-08-02T01:54:58.670Z,98357.56
2022-08-02T01:55:18.477Z,98352.84
2022-08-02T01:55:58.052Z,98354.72
2022-08-02T01:56:07.785Z,98349.47
2022-08-02T01:56:20.826Z,98352.31
2022-08-02T01:56:34.219Z,98356.72
2022-08-02T01:56:47.108Z,98354.84
2022-08-02T01:57:00.275Z,98358.09
2022-08-02T01:57:15.014Z,98358.25
2022-08-02T01:57:28.850Z,98359.56
2022-08-02T01:57:45.723Z,98359.41
2022-08-02T01:58:00.632Z,98360.25
2022-08-02T01:58:14.929Z,98362.09
2022-08-02T01:58:31.915Z,98358.72
2022-08-02T01:58:44.879Z,98352.47
2022-08-02T01:58:57.861Z,98357.72
2022-08-02T01:59:13.456Z,98356.84
2022-08-02T01:59:26.564Z,98361.56
2022-08-02T01:59:40.199Z,98359.72
2022-08-02T01:59:53.453Z,98359.56
2022-08-02T02:00:08.168Z,98357.00
2022-08-02T02:00:22.285Z,98361.72
2022-08-02T02:00:39.240Z,98359.84
2022-08-02T02:00:52.302Z,98359.00
2022-08-02T02:01:05.783Z,98358.00
2022-08-02T02:01:19.160Z,98352.63
2022-08-02T02:01:32.823Z,98356.84
2022-08-02T02:01:46.236Z,98362.09
2022-08-02T02:01:59.816Z,98361.41
2022-08-02T02:02:13.424Z,98354.31
2022-08-02T02:02:31.381Z,98358.84
2022-08-02T02:02:47.783Z,98361.56
2022-08-02T02:03:01.253Z,98360.84
2022-08-02T02:03:21.644Z,98358.16
2022-08-02T02:03:34.518Z,98355.16
2022-08-02T02:03:47.931Z,98356.56
2022-08-02T02:04:01.136Z,98352.31
2022-08-02T02:04:14.300Z,98351.59
2022-08-02T02:04:28.564Z,98356.16
2022-08-02T02:04:42.596Z,98355.16
2022-08-02T02:04:56.027Z,98357.16
2022-08-02T02:05:11.926Z,98355.16
2022-08-02T02:05:26.545Z,98354.47
2022-08-02T02:05:39.621Z,98353.47
2022-08-02T02:05:56.014Z,98355.16
2022-08-02T02:06:09.989Z,98353.72
2022-08-02T02:06:23.117Z,98357.16
2022-08-02T02:06:39.503Z,98358.84
2022-08-02T02:06:52.635Z,98353.47
2022-08-02T02:07:05.870Z,98364.25
2022-08-02T02:07:19.350Z,98356.31
2022-08-02T02:07:33.374Z,98360.72
2022-08-02T02:07:48.791Z,98359.84
2022-08-02T02:08:04.459Z,98360.56
2022-08-02T02:08:27.238Z,98361.56
2022-08-02T02:08:41.684Z,98359.12
2022-08-02T02:08:54.631Z,98360.28
2022-08-02T02:09:07.534Z,98367.53
2022-08-02T02:09:20.945Z,98365.81
2022-08-02T02:09:37.359Z,98360.44
2022-08-02T02:10:04.124Z,98359.28
2022-08-02T02:10:21.402Z,98362.81
2022-08-02T02:10:35.720Z,98365.69
2022-08-02T02:10:48.590Z,98368.22
2022-08-02T02:12:09.379Z,98362.81
2022-08-02T02:12:09.479Z,98369.81
2022-08-02T02:12:14.453Z,98362.41
2022-08-02T02:12:27.755Z,98366.12
2022-08-02T02:12:40.625Z,98366.38
2022-08-02T02:12:53.520Z,98364.53
2022-08-02T02:13:12.394Z,98364.53
2022-08-02T02:13:33.402Z,98363.56
2022-08-02T02:13:46.605Z,98371.66
2022-08-02T02:13:59.661Z,98368.22
2022-08-02T02:14:13.078Z,98370.06
2022-08-02T02:14:26.062Z,98362.81
2022-08-02T02:14:39.098Z,98368.38
2022-08-02T02:14:52.332Z,98372.94
2022-08-02T02:15:06.070Z,98363.13
2022-08-02T02:15:19.022Z,98363.13
2022-08-02T02:15:34.877Z,98366.81
2022-08-02T02:15:49.615Z,98366.28
2022-08-02T02:16:04.141Z,98367.12
2022-08-02T02:16:17.080Z,98357.31
2022-08-02T02:16:32.046Z,98366.56
2022-08-02T02:16:45.302Z,98367.28
2022-08-02T02:16:58.723Z,98374.53
2022-08-02T02:17:52.922Z,98364.97
2022-08-02T02:18:10.722Z,98371.53
2022-08-02T02:18:23.420Z,98370.22
2022-08-02T02:18:42.054Z,98371.38
2022-08-02T02:18:55.096Z,98363.28
2022-08-02T02:19:08.299Z,98359.88
2022-08-02T02:19:22.690Z,98365.28
2022-08-02T02:19:37.095Z,98368.13
2022-08-02T02:19:50.005Z,98367.12
2022-08-02T02:20:03.038Z,98370.69
2022-08-02T02:20:17.161Z,98365.13
2022-08-02T02:20:30.268Z,98368.81
2022-08-02T02:20:43.534Z,98368.69
2022-08-02T02:20:56.452Z,98372.22
2022-08-02T02:21:09.444Z,98371.06
2022-08-02T02:21:22.332Z,98362.97
2022-08-02T02:21:35.284Z,98365.28
2022-08-02T02:21:49.437Z,98371.38
2022-08-02T02:22:02.371Z,98366.81
2022-08-02T02:22:15.241Z,98362.97
2022-08-02T02:22:28.118Z,98371.06
2022-08-02T02:22:41.030Z,98373.94
2022-08-02T02:22:53.910Z,98369.37
2022-08-02T02:23:06.818Z,98371.38
2022-08-02T02:23:24.435Z,98373.22
2022-08-02T02:23:38.859Z,98374.78
2022-08-02T02:23:53.562Z,98363.13
2022-08-02T02:24:09.115Z,98365.69
2022-08-02T02:24:24.649Z,98376.47
2022-08-02T02:24:37.669Z,98370.94
2022-08-02T02:24:50.543Z,98370.06
2022-08-02T02:25:06.357Z,98369.22
2022-08-02T02:25:23.707Z,98372.94
2022-08-02T02:25:49.163Z,98371.22
2022-08-02T02:26:04.193Z,98365.97
2022-08-02T02:26:17.540Z,98372.22
2022-08-02T02:26:42.906Z,98369.69
2022-08-02T02:27:05.173Z,98373.38
2022-08-02T02:27:18.139Z,98368.81
2022-08-02T02:27:31.062Z,98380.63
2022-08-02T02:27:56.229Z,98370.97
2022-08-02T02:28:13.291Z,98371.69
2022-08-02T02:28:30.477Z,98369.53
2022-08-02T02:28:43.396Z,98379.47
2022-08-02T02:28:56.266Z,98376.94
2022-08-02T02:29:09.340Z,98369.81
2022-08-02T02:29:22.457Z,98366.28
2022-08-02T02:29:35.410Z,98370.69
2022-08-02T02:29:48.357Z,98372.53
2022-08-02T02:30:01.259Z,98362.87
2022-08-02T02:30:14.422Z,98369.13
2022-08-02T02:30:27.568Z,98371.69
2022-08-02T02:30:41.926Z,98368.81
2022-08-02T02:31:00.649Z,98373.38
2022-08-02T02:31:14.530Z,98372.81
2022-08-02T02:31:27.450Z,98371.97
2022-08-02T02:31:42.750Z,98377.09
2022-08-02T02:31:55.734Z,98371.09
2022-08-02T02:32:09.056Z,98372.81
2022-08-02T02:32:22.121Z,98366.69
2022-08-02T02:32:35.063Z,98372.81
2022-08-02T02:32:48.070Z,98370.81
2022-08-02T02:33:02.386Z,98373.38
2022-08-02T02:33:17.463Z,98375.63
2022-08-02T02:33:31.191Z,98371.97
2022-08-02T02:34:05.294Z,98370.53
2022-08-02T02:34:23.249Z,98368.13
2022-08-02T02:34:38.525Z,98364.56
2022-08-02T02:34:51.461Z,98365.69
2022-08-02T02:35:04.590Z,98377.50
2022-08-02T02:35:17.496Z,98370.53
2022-08-02T02:35:32.534Z,98371.38
2022-08-02T02:35:45.368Z,98367.12
2022-08-02T02:35:58.369Z,98369.53
2022-08-02T02:36:11.266Z,98368.69
2022-08-02T02:36:24.111Z,98374.78
2022-08-02T02:36:49.706Z,98368.28
2022-08-02T02:37:04.303Z,98374.78
2022-08-02T02:37:22.135Z,98372.09
2022-08-02T02:37:35.078Z,98364.13
2022-08-02T02:37:48.627Z,98374.09
2022-08-02T02:38:02.554Z,98375.63
2022-08-02T02:38:16.794Z,98372.09
2022-08-02T02:38:31.863Z,98369.37
2022-08-02T02:38:44.730Z,98367.12
2022-08-02T02:38:57.859Z,98375.09
2022-08-02T02:39:13.550Z,98375.09
2022-08-02T02:39:27.142Z,98376.78
2022-08-02T02:39:40.435Z,98376.94
2022-08-02T02:39:55.027Z,98377.78
2022-08-02T02:40:08.797Z,98375.09
2022-08-02T02:40:22.269Z,98368.00
2022-08-02T02:40:35.113Z,98374.25
2022-08-02T02:40:48.085Z,98376.63
2022-08-02T02:41:02.100Z,98369.53
2022-08-02T02:41:15.231Z,98375.94
2022-08-02T02:41:29.158Z,98374.25
2022-08-02T02:41:43.027Z,98369.97
2022-08-02T02:41:57.034Z,98368.97
2022-08-02T02:42:12.498Z,98373.25
2022-08-02T02:42:30.497Z,98374.78
2022-08-02T02:42:49.322Z,98370.53
2022-08-02T02:43:02.484Z,98366.28
2022-08-02T02:43:15.679Z,98371.97
2022-08-02T02:43:30.392Z,98363.19
2022-08-02T02:43:43.632Z,98371.28
2022-08-02T02:44:05.023Z,98369.28
2022-08-02T02:44:19.895Z,98369.69
2022-08-02T02:44:38.606Z,98375.09
2022-08-02T02:44:52.593Z,98367.84
2022-08-02T02:45:06.051Z,98360.88
2022-08-02T02:45:19.826Z,98368.00
2022-08-02T02:45:32.889Z,98372.38
2022-08-02T02:45:45.792Z,98371.38
2022-08-02T02:45:59.121Z,98367.00
2022-08-02T02:46:12.008Z,98362.59
2022-08-02T02:46:25.160Z,98368.84
2022-08-02T02:46:40.576Z,98370.53
2022-08-02T02:46:54.437Z,98366.00
2022-08-02T02:47:08.230Z,98371.25
2022-08-02T02:47:21.245Z,98365.84
2022-08-02T02:47:41.475Z,98361.59
2022-08-02T02:47:55.549Z,98378.78
2022-08-02T02:48:08.580Z,98369.69
2022-08-02T02:48:21.914Z,98370.53
2022-08-02T02:48:35.555Z,98369.69
2022-08-02T02:48:50.458Z,98365.28
2022-08-02T02:49:03.471Z,98369.97
2022-08-02T02:49:16.536Z,98368.28
2022-08-02T02:49:29.578Z,98379.06
2022-08-02T02:49:44.107Z,98369.97
2022-08-02T02:49:57.810Z,98375.38
2022-08-02T02:50:11.249Z,98369.13
2022-08-02T02:50:24.633Z,98372.81
2022-08-02T02:50:37.661Z,98375.69
2022-08-02T02:50:51.465Z,98368.44
2022-08-02T02:51:04.995Z,98368.00
2022-08-02T02:51:18.426Z,98369.69
2022-08-02T02:51:31.295Z,98379.63
2022-08-02T02:51:48.171Z,98369.69
2022-08-02T02:52:01.257Z,98373.25
2022-08-02T02:52:15.943Z,98369.69
2022-08-02T02:52:33.403Z,98370.84
2022-08-02T02:52:46.402Z,98368.97
2022-08-02T02:52:59.322Z,98372.53
2022-08-02T02:53:12.282Z,98370.69
2022-08-02T02:53:25.810Z,98369.84
2022-08-02T02:54:30.693Z,98360.03
2022-08-02T02:54:33.296Z,98370.84
2022-08-02T02:54:45.630Z,98370.69
2022-08-02T02:54:58.657Z,98370.84
2022-08-02T02:55:12.197Z,98369.97
2022-08-02T02:55:25.616Z,98376.38
2022-08-02T02:55:39.539Z,98372.13
2022-08-02T02:56:01.996Z,98372.97
2022-08-02T02:56:16.574Z,98362.03
2022-08-02T02:56:29.572Z,98366.59
2022-08-02T02:56:42.867Z,98373.69
2022-08-02T02:56:55.812Z,98373.69
2022-08-02T02:57:08.897Z,98371.28
2022-08-02T02:57:21.743Z,98378.53
2022-08-02T02:57:35.785Z,98368.59
2022-08-02T02:57:48.650Z,98372.13
2022-08-02T02:58:01.543Z,98372.25
2022-08-02T02:58:14.851Z,98376.78
2022-08-02T02:58:28.956Z,98369.53
2022-08-02T02:58:42.011Z,98378.63
2022-08-02T02:58:55.308Z,98363.44
2022-08-02T02:59:08.756Z,98373.38
2022-08-02T02:59:21.794Z,98375.25
2022-08-02T02:59:35.383Z,98381.62
2022-08-02T02:59:49.998Z,98386.19
2022-08-02T03:00:07.457Z,98379.91
2022-08-02T03:00:40.536Z,98379.06
2022-08-02T03:01:12.307Z,98376.25
2022-08-02T03:01:55.714Z,98374.38
2022-08-02T03:02:01.887Z,98372.69
2022-08-02T03:02:16.298Z,98378.09
2022-08-02T03:02:34.066Z,98381.62
2022-08-02T03:02:48.985Z,98378.19
2022-08-02T03:03:01.931Z,98381.50
2022-08-02T03:03:14.825Z,98376.94
2022-08-02T03:03:32.845Z,98374.09
2022-08-02T03:03:45.919Z,98383.94
2022-08-02T03:04:05.097Z,98376.78